PTR193 CYMO-CYTZ
Flight info
| Callsign | PTR193 |
|---|---|
| Flight time | 1h 46m |
| Altitude | 24000 |
| Route | BUBAN DCT ILUSI |
| Aircraft | DH8D/M-SDE2E3FGRY/H |
Departure
| Time | 2026-04-29 18:24 |
|---|---|
| Airport | Moosonee Airport (CYMO) |
Arrival
| Time | 2026-04-29 20:11 |
|---|---|
| Airport | Billy Bishop Toronto City Airport (CYTZ) |
| Time | Latitude | Longitude | Altitude | Speed | Heading |
|---|---|---|---|---|---|
| 2026-04-29 17:56 | 51.28878 | -80.61344 | 34 ft | 0 kts | 201° |
| 2026-04-29 18:20 | 51.28870 | -80.61337 | 33 ft | 4 kts | 96° |
| 2026-04-29 18:20 | 51.28895 | -80.61332 | 33 ft | 4 kts | 343° |
| 2026-04-29 18:20 | 51.28905 | -80.61331 | 33 ft | 5 kts | 17° |
| 2026-04-29 18:20 | 51.28933 | -80.61269 | 33 ft | 12 kts | 115° |
| 2026-04-29 18:21 | 51.28887 | -80.61085 | 32 ft | 23 kts | 104° |
| 2026-04-29 18:21 | 51.28861 | -80.60819 | 31 ft | 23 kts | 53° |
| 2026-04-29 18:21 | 51.28973 | -80.60643 | 30 ft | 21 kts | 44° |
| 2026-04-29 18:21 | 51.29077 | -80.60485 | 30 ft | 20 kts | 42° |
| 2026-04-29 18:22 | 51.29179 | -80.60326 | 30 ft | 19 kts | 47° |
| 2026-04-29 18:22 | 51.29298 | -80.60151 | 30 ft | 30 kts | 43° |
| 2026-04-29 18:22 | 51.29483 | -80.59866 | 31 ft | 36 kts | 42° |
| 2026-04-29 18:22 | 51.29573 | -80.59743 | 31 ft | 7 kts | 36° |
| 2026-04-29 18:23 | 51.29571 | -80.59727 | 31 ft | 0 kts | 228° |
| 2026-04-29 18:23 | 51.29570 | -80.59727 | 31 ft | 0 kts | 223° |
| 2026-04-29 18:23 | 51.29483 | -80.59863 | 31 ft | 58 kts | 224° |
| 2026-04-29 18:24 | 51.28999 | -80.60599 | 31 ft | 127 kts | 221° |
| 2026-04-29 18:24 | 51.28267 | -80.61599 | 282 ft | 144 kts | 219° |
| 2026-04-29 18:24 | 51.27416 | -80.62554 | 759 ft | 158 kts | 216° |
| 2026-04-29 18:24 | 51.26469 | -80.63442 | 1312 ft | 161 kts | 211° |
| 2026-04-29 18:25 | 51.26384 | -80.63512 | 1349 ft | 162 kts | 212° |
| 2026-04-29 18:25 | 51.25329 | -80.64351 | 1648 ft | 180 kts | 206° |
| 2026-04-29 18:25 | 51.24041 | -80.64234 | 2035 ft | 200 kts | 154° |
| 2026-04-29 18:25 | 51.22917 | -80.62917 | 2562 ft | 204 kts | 147° |
| 2026-04-29 18:26 | 51.21709 | -80.61739 | 3149 ft | 203 kts | 155° |
| 2026-04-29 18:26 | 51.20440 | -80.60779 | 3729 ft | 203 kts | 160° |
| 2026-04-29 18:26 | 51.19128 | -80.59970 | 4244 ft | 206 kts | 164° |
| 2026-04-29 18:26 | 51.17764 | -80.59275 | 4778 ft | 207 kts | 167° |
| 2026-04-29 18:27 | 51.16378 | -80.58673 | 5272 ft | 208 kts | 169° |
| 2026-04-29 18:27 | 51.14960 | -80.58136 | 5738 ft | 211 kts | 171° |
| 2026-04-29 18:27 | 51.13526 | -80.57651 | 6171 ft | 212 kts | 171° |
| 2026-04-29 18:27 | 51.12068 | -80.57194 | 6568 ft | 214 kts | 173° |
| 2026-04-29 18:28 | 51.10600 | -80.56768 | 6958 ft | 214 kts | 173° |
| 2026-04-29 18:28 | 51.09139 | -80.56364 | 7335 ft | 215 kts | 174° |
| 2026-04-29 18:28 | 51.07666 | -80.55974 | 7726 ft | 215 kts | 174° |
| 2026-04-29 18:28 | 51.06205 | -80.55598 | 8101 ft | 216 kts | 175° |
| 2026-04-29 18:29 | 51.04707 | -80.55222 | 8494 ft | 216 kts | 175° |
| 2026-04-29 18:29 | 51.03734 | -80.54981 | 8741 ft | 217 kts | 175° |
| 2026-04-29 18:29 | 51.01745 | -80.54496 | 9261 ft | 217 kts | 176° |
| 2026-04-29 18:29 | 51.00245 | -80.54136 | 9723 ft | 218 kts | 175° |
| 2026-04-29 18:30 | 50.98750 | -80.53777 | 10271 ft | 219 kts | 176° |
| 2026-04-29 18:30 | 50.97271 | -80.53423 | 10812 ft | 218 kts | 176° |
| 2026-04-29 18:30 | 50.95766 | -80.53066 | 11335 ft | 219 kts | 176° |
| 2026-04-29 18:30 | 50.94269 | -80.52713 | 11855 ft | 220 kts | 176° |
| 2026-04-29 18:31 | 50.92762 | -80.52359 | 12357 ft | 220 kts | 177° |
| 2026-04-29 18:31 | 50.91257 | -80.52006 | 12868 ft | 221 kts | 177° |
| 2026-04-29 18:31 | 50.89729 | -80.51649 | 13371 ft | 222 kts | 177° |
| 2026-04-29 18:31 | 50.88210 | -80.51294 | 13873 ft | 223 kts | 177° |
| 2026-04-29 18:32 | 50.86675 | -80.50936 | 14368 ft | 224 kts | 177° |
| 2026-04-29 18:32 | 50.83597 | -80.50219 | 15328 ft | 225 kts | 177° |
| 2026-04-29 18:32 | 50.82050 | -80.49859 | 15786 ft | 226 kts | 178° |
| 2026-04-29 18:33 | 50.80502 | -80.49498 | 16227 ft | 227 kts | 178° |
| 2026-04-29 18:33 | 50.78948 | -80.49137 | 16651 ft | 228 kts | 178° |
| 2026-04-29 18:33 | 50.77371 | -80.48771 | 17075 ft | 228 kts | 178° |
| 2026-04-29 18:33 | 50.75804 | -80.48408 | 17451 ft | 229 kts | 178° |
| 2026-04-29 18:34 | 50.74240 | -80.48044 | 17834 ft | 230 kts | 178° |
| 2026-04-29 18:34 | 50.73183 | -80.47801 | 18089 ft | 231 kts | 178° |
| 2026-04-29 18:34 | 50.71070 | -80.47308 | 18616 ft | 230 kts | 178° |
| 2026-04-29 18:34 | 50.69480 | -80.46941 | 18917 ft | 232 kts | 178° |
| 2026-04-29 18:35 | 50.67899 | -80.46577 | 19300 ft | 232 kts | 178° |
| 2026-04-29 18:35 | 50.66293 | -80.46206 | 19624 ft | 233 kts | 179° |
| 2026-04-29 18:35 | 50.64706 | -80.45840 | 19945 ft | 234 kts | 179° |
| 2026-04-29 18:35 | 50.63106 | -80.45470 | 20273 ft | 234 kts | 179° |
| 2026-04-29 18:36 | 50.61489 | -80.45098 | 20580 ft | 234 kts | 179° |
| 2026-04-29 18:36 | 50.59878 | -80.44727 | 20870 ft | 235 kts | 179° |
| 2026-04-29 18:36 | 50.58271 | -80.44356 | 21176 ft | 234 kts | 179° |
| 2026-04-29 18:36 | 50.56646 | -80.43983 | 21419 ft | 236 kts | 179° |
| 2026-04-29 18:37 | 50.55038 | -80.43613 | 21685 ft | 236 kts | 179° |
| 2026-04-29 18:37 | 50.53414 | -80.43240 | 21924 ft | 237 kts | 179° |
| 2026-04-29 18:37 | 50.51772 | -80.42863 | 22171 ft | 237 kts | 179° |
| 2026-04-29 18:37 | 50.50161 | -80.42493 | 22399 ft | 237 kts | 179° |
| 2026-04-29 18:38 | 50.48522 | -80.42117 | 22622 ft | 238 kts | 179° |
| 2026-04-29 18:38 | 50.46879 | -80.41742 | 22833 ft | 238 kts | 179° |
| 2026-04-29 18:38 | 50.45235 | -80.41367 | 23033 ft | 239 kts | 179° |
| 2026-04-29 18:38 | 50.43600 | -80.40992 | 23243 ft | 239 kts | 179° |
| 2026-04-29 18:39 | 50.41954 | -80.40616 | 23433 ft | 240 kts | 179° |
| 2026-04-29 18:39 | 50.40322 | -80.40243 | 23631 ft | 239 kts | 179° |
| 2026-04-29 18:39 | 50.38673 | -80.39867 | 23796 ft | 241 kts | 179° |
| 2026-04-29 18:39 | 50.37009 | -80.39490 | 23919 ft | 244 kts | 179° |
| 2026-04-29 18:40 | 50.35312 | -80.39108 | 23958 ft | 250 kts | 179° |
| 2026-04-29 18:40 | 50.33569 | -80.38715 | 23965 ft | 257 kts | 179° |
| 2026-04-29 18:40 | 50.31792 | -80.38314 | 23968 ft | 263 kts | 178° |
| 2026-04-29 18:40 | 50.29962 | -80.37900 | 23968 ft | 270 kts | 178° |
| 2026-04-29 18:41 | 50.24210 | -80.36596 | 23964 ft | 288 kts | 177° |
| 2026-04-29 18:41 | 50.22190 | -80.36137 | 23967 ft | 293 kts | 177° |
| 2026-04-29 18:42 | 50.20162 | -80.35677 | 23964 ft | 297 kts | 177° |
| 2026-04-29 18:42 | 50.18127 | -80.35216 | 23961 ft | 301 kts | 177° |
| 2026-04-29 18:42 | 50.16037 | -80.34743 | 23962 ft | 304 kts | 178° |
| 2026-04-29 18:42 | 50.13936 | -80.34267 | 23957 ft | 307 kts | 177° |
| 2026-04-29 18:43 | 50.11820 | -80.33788 | 23954 ft | 309 kts | 177° |
| 2026-04-29 18:43 | 50.09682 | -80.33305 | 23955 ft | 311 kts | 177° |
| 2026-04-29 18:43 | 50.07552 | -80.32825 | 23958 ft | 312 kts | 177° |
| 2026-04-29 18:43 | 50.05399 | -80.32340 | 23957 ft | 314 kts | 177° |
| 2026-04-29 18:44 | 50.03242 | -80.31855 | 23956 ft | 315 kts | 177° |
| 2026-04-29 18:44 | 50.01074 | -80.31368 | 23950 ft | 316 kts | 176° |
| 2026-04-29 18:44 | 49.98896 | -80.30879 | 23953 ft | 316 kts | 176° |
| 2026-04-29 18:44 | 49.96738 | -80.30396 | 23951 ft | 317 kts | 176° |
| 2026-04-29 18:45 | 49.94545 | -80.29904 | 23957 ft | 317 kts | 176° |
| 2026-04-29 18:45 | 49.92381 | -80.29421 | 23952 ft | 317 kts | 176° |
| 2026-04-29 18:45 | 49.90175 | -80.28928 | 23952 ft | 317 kts | 176° |
| 2026-04-29 18:45 | 49.87971 | -80.28436 | 23951 ft | 318 kts | 176° |
| 2026-04-29 18:46 | 49.85791 | -80.27950 | 23952 ft | 318 kts | 176° |
| 2026-04-29 18:46 | 49.83603 | -80.27464 | 23951 ft | 318 kts | 176° |
| 2026-04-29 18:46 | 49.81419 | -80.26977 | 23952 ft | 318 kts | 176° |
| 2026-04-29 18:46 | 49.79232 | -80.26492 | 23950 ft | 318 kts | 176° |
| 2026-04-29 18:47 | 49.77019 | -80.26000 | 23947 ft | 319 kts | 176° |
| 2026-04-29 18:47 | 49.74823 | -80.25513 | 23950 ft | 318 kts | 176° |
| 2026-04-29 18:47 | 49.72649 | -80.25030 | 23954 ft | 319 kts | 176° |
| 2026-04-29 18:47 | 49.70446 | -80.24543 | 23949 ft | 319 kts | 176° |
| 2026-04-29 18:48 | 49.68262 | -80.24060 | 23950 ft | 319 kts | 176° |
| 2026-04-29 18:48 | 49.66083 | -80.23579 | 23948 ft | 319 kts | 176° |
| 2026-04-29 18:48 | 49.63877 | -80.23091 | 23948 ft | 318 kts | 176° |
| 2026-04-29 18:48 | 49.61704 | -80.22611 | 23957 ft | 317 kts | 176° |
| 2026-04-29 18:49 | 49.59498 | -80.22123 | 23945 ft | 318 kts | 176° |
| 2026-04-29 18:49 | 49.57326 | -80.21648 | 23949 ft | 318 kts | 176° |
| 2026-04-29 18:49 | 49.55146 | -80.21169 | 23948 ft | 317 kts | 176° |
| 2026-04-29 18:49 | 49.52972 | -80.20692 | 23954 ft | 317 kts | 175° |
| 2026-04-29 18:50 | 49.50811 | -80.20211 | 23741 ft | 312 kts | 175° |
| 2026-04-29 18:50 | 49.48644 | -80.19733 | 23125 ft | 315 kts | 175° |
| 2026-04-29 18:50 | 49.46520 | -80.19267 | 22753 ft | 312 kts | 176° |
| 2026-04-29 18:50 | 49.44348 | -80.18789 | 22251 ft | 312 kts | 175° |
| 2026-04-29 18:51 | 49.42230 | -80.18321 | 21793 ft | 310 kts | 175° |
| 2026-04-29 18:51 | 49.40106 | -80.17850 | 21052 ft | 309 kts | 175° |
| 2026-04-29 18:51 | 49.38004 | -80.17384 | 20382 ft | 306 kts | 175° |
| 2026-04-29 18:51 | 49.35945 | -80.16931 | 20048 ft | 296 kts | 175° |
| 2026-04-29 18:52 | 49.33869 | -80.16489 | 19982 ft | 306 kts | 175° |
| 2026-04-29 18:52 | 49.31745 | -80.16038 | 19953 ft | 314 kts | 174° |
| 2026-04-29 18:52 | 49.29565 | -80.15570 | 19958 ft | 319 kts | 175° |
| 2026-04-29 18:52 | 49.27334 | -80.15095 | 19989 ft | 323 kts | 174° |
| 2026-04-29 18:53 | 49.25228 | -80.14632 | 21043 ft | 289 kts | 175° |
| 2026-04-29 18:53 | 49.23484 | -80.14233 | 22627 ft | 239 kts | 175° |
| 2026-04-29 18:53 | 49.21890 | -80.13882 | 22991 ft | 235 kts | 177° |
| 2026-04-29 18:53 | 49.20273 | -80.13538 | 23194 ft | 234 kts | 177° |
| 2026-04-29 18:54 | 49.18669 | -80.13198 | 23421 ft | 233 kts | 176° |
| 2026-04-29 18:54 | 49.17069 | -80.12855 | 23639 ft | 232 kts | 176° |
| 2026-04-29 18:54 | 49.15467 | -80.12517 | 23761 ft | 234 kts | 176° |
| 2026-04-29 18:54 | 49.13866 | -80.12173 | 23931 ft | 233 kts | 176° |
| 2026-04-29 18:55 | 49.12258 | -80.11829 | 24075 ft | 235 kts | 176° |
| 2026-04-29 18:55 | 49.10647 | -80.11484 | 24242 ft | 234 kts | 176° |
| 2026-04-29 18:55 | 49.09022 | -80.11134 | 24359 ft | 236 kts | 176° |
| 2026-04-29 18:55 | 49.07407 | -80.10785 | 24492 ft | 236 kts | 176° |
| 2026-04-29 18:56 | 49.05780 | -80.10437 | 24638 ft | 236 kts | 176° |
| 2026-04-29 18:56 | 49.04158 | -80.10087 | 24759 ft | 236 kts | 176° |
| 2026-04-29 18:56 | 49.02529 | -80.09735 | 24897 ft | 237 kts | 176° |
| 2026-04-29 18:56 | 49.00894 | -80.09384 | 24940 ft | 241 kts | 176° |
| 2026-04-29 18:57 | 48.99226 | -80.09029 | 24950 ft | 246 kts | 176° |
| 2026-04-29 18:57 | 48.97514 | -80.08665 | 24951 ft | 252 kts | 176° |
| 2026-04-29 18:57 | 48.95768 | -80.08290 | 24952 ft | 257 kts | 176° |
| 2026-04-29 18:57 | 48.93976 | -80.07905 | 24952 ft | 262 kts | 176° |
| 2026-04-29 18:58 | 48.92164 | -80.07520 | 24954 ft | 267 kts | 176° |
| 2026-04-29 18:58 | 48.90303 | -80.07117 | 24958 ft | 271 kts | 176° |
| 2026-04-29 18:58 | 48.88420 | -80.06713 | 24952 ft | 276 kts | 176° |
| 2026-04-29 18:58 | 48.86488 | -80.06300 | 24948 ft | 281 kts | 176° |
| 2026-04-29 18:59 | 48.84526 | -80.05878 | 24952 ft | 285 kts | 175° |
| 2026-04-29 18:59 | 48.82544 | -80.05455 | 24953 ft | 290 kts | 176° |
| 2026-04-29 18:59 | 48.80555 | -80.05030 | 24955 ft | 293 kts | 175° |
| 2026-04-29 18:59 | 48.78508 | -80.04594 | 24954 ft | 297 kts | 176° |
| 2026-04-29 19:00 | 48.76438 | -80.04153 | 24961 ft | 299 kts | 175° |
| 2026-04-29 19:00 | 48.74342 | -80.03704 | 24946 ft | 302 kts | 175° |
| 2026-04-29 19:00 | 48.72264 | -80.03264 | 24951 ft | 304 kts | 175° |
| 2026-04-29 19:00 | 48.70145 | -80.02812 | 24945 ft | 305 kts | 175° |
| 2026-04-29 19:01 | 48.68044 | -80.02364 | 24947 ft | 306 kts | 175° |
| 2026-04-29 19:01 | 48.65915 | -80.01909 | 24948 ft | 308 kts | 175° |
| 2026-04-29 19:01 | 48.63786 | -80.01459 | 24946 ft | 309 kts | 175° |
| 2026-04-29 19:01 | 48.61661 | -80.01009 | 24945 ft | 310 kts | 175° |
| 2026-04-29 19:02 | 48.59518 | -80.00555 | 24942 ft | 311 kts | 175° |
| 2026-04-29 19:02 | 48.58102 | -80.00256 | 24942 ft | 311 kts | 175° |
| 2026-04-29 19:02 | 48.55239 | -79.99649 | 24942 ft | 311 kts | 175° |
| 2026-04-29 19:02 | 48.53115 | -79.99197 | 24823 ft | 304 kts | 175° |
| 2026-04-29 19:03 | 48.51012 | -79.98746 | 24094 ft | 305 kts | 175° |
| 2026-04-29 19:03 | 48.48930 | -79.98304 | 23949 ft | 301 kts | 175° |
| 2026-04-29 19:03 | 48.46889 | -79.97874 | 23933 ft | 297 kts | 175° |
| 2026-04-29 19:03 | 48.44860 | -79.97447 | 23933 ft | 293 kts | 175° |
| 2026-04-29 19:04 | 48.42872 | -79.97029 | 23936 ft | 290 kts | 175° |
| 2026-04-29 19:04 | 48.40861 | -79.96610 | 23939 ft | 294 kts | 175° |
| 2026-04-29 19:04 | 48.38810 | -79.96184 | 23943 ft | 297 kts | 175° |
| 2026-04-29 19:04 | 48.36765 | -79.95759 | 23938 ft | 300 kts | 175° |
| 2026-04-29 19:05 | 48.34680 | -79.95325 | 23937 ft | 303 kts | 175° |
| 2026-04-29 19:05 | 48.32564 | -79.94882 | 23934 ft | 305 kts | 175° |
| 2026-04-29 19:05 | 48.30476 | -79.94447 | 23933 ft | 307 kts | 175° |
| 2026-04-29 19:05 | 48.28343 | -79.94003 | 23932 ft | 308 kts | 174° |
| 2026-04-29 19:06 | 48.26217 | -79.93557 | 23938 ft | 309 kts | 174° |
| 2026-04-29 19:06 | 48.24085 | -79.93113 | 23939 ft | 310 kts | 174° |
| 2026-04-29 19:06 | 48.19804 | -79.92220 | 23931 ft | 311 kts | 174° |
| 2026-04-29 19:07 | 48.17669 | -79.91776 | 23930 ft | 312 kts | 174° |
| 2026-04-29 19:07 | 48.16249 | -79.91481 | 23935 ft | 312 kts | 174° |
| 2026-04-29 19:07 | 48.13365 | -79.90881 | 23937 ft | 313 kts | 174° |
| 2026-04-29 19:07 | 48.11222 | -79.90437 | 23934 ft | 313 kts | 174° |
| 2026-04-29 19:08 | 48.09063 | -79.89989 | 23935 ft | 313 kts | 175° |
| 2026-04-29 19:08 | 48.06896 | -79.89540 | 23936 ft | 313 kts | 174° |
| 2026-04-29 19:08 | 48.04734 | -79.89092 | 23933 ft | 313 kts | 174° |
| 2026-04-29 19:08 | 48.02567 | -79.88644 | 23931 ft | 313 kts | 174° |
| 2026-04-29 19:09 | 48.00401 | -79.88196 | 23934 ft | 313 kts | 174° |
| 2026-04-29 19:09 | 47.98239 | -79.87749 | 23930 ft | 313 kts | 175° |
| 2026-04-29 19:09 | 47.96089 | -79.87306 | 23931 ft | 313 kts | 175° |
| 2026-04-29 19:09 | 47.93944 | -79.86864 | 23933 ft | 313 kts | 174° |
| 2026-04-29 19:10 | 47.91774 | -79.86417 | 23933 ft | 313 kts | 174° |
| 2026-04-29 19:10 | 47.89611 | -79.85972 | 23934 ft | 313 kts | 174° |
| 2026-04-29 19:10 | 47.87453 | -79.85528 | 23932 ft | 313 kts | 174° |
| 2026-04-29 19:10 | 47.85302 | -79.85086 | 23936 ft | 313 kts | 175° |
| 2026-04-29 19:11 | 47.83131 | -79.84641 | 23940 ft | 313 kts | 175° |
| 2026-04-29 19:11 | 47.80980 | -79.84199 | 23950 ft | 313 kts | 175° |
| 2026-04-29 19:11 | 47.78807 | -79.83754 | 23950 ft | 314 kts | 175° |
| 2026-04-29 19:11 | 47.77559 | -79.83498 | 23949 ft | 314 kts | 175° |
| 2026-04-29 19:12 | 47.76458 | -79.83273 | 23943 ft | 314 kts | 175° |
| 2026-04-29 19:12 | 47.74303 | -79.82832 | 23946 ft | 314 kts | 175° |
| 2026-04-29 19:12 | 47.72140 | -79.82390 | 23948 ft | 314 kts | 175° |
| 2026-04-29 19:12 | 47.70707 | -79.82098 | 23945 ft | 314 kts | 175° |
| 2026-04-29 19:13 | 47.67841 | -79.81512 | 23953 ft | 314 kts | 175° |
| 2026-04-29 19:13 | 47.65682 | -79.81072 | 23955 ft | 314 kts | 175° |
| 2026-04-29 19:13 | 47.63516 | -79.80631 | 23950 ft | 314 kts | 175° |
| 2026-04-29 19:13 | 47.61353 | -79.80191 | 23945 ft | 314 kts | 175° |
| 2026-04-29 19:14 | 47.59165 | -79.79746 | 23940 ft | 314 kts | 175° |
| 2026-04-29 19:14 | 47.57016 | -79.79310 | 23939 ft | 314 kts | 175° |
| 2026-04-29 19:14 | 47.54858 | -79.78871 | 23932 ft | 314 kts | 175° |
| 2026-04-29 19:14 | 47.52690 | -79.78432 | 23933 ft | 314 kts | 175° |
| 2026-04-29 19:15 | 47.50529 | -79.77993 | 23930 ft | 313 kts | 175° |
| 2026-04-29 19:15 | 47.48380 | -79.77558 | 23932 ft | 313 kts | 175° |
| 2026-04-29 19:15 | 47.46189 | -79.77115 | 23933 ft | 313 kts | 175° |
| 2026-04-29 19:15 | 47.44041 | -79.76680 | 23929 ft | 313 kts | 175° |
| 2026-04-29 19:16 | 47.41875 | -79.76243 | 23926 ft | 313 kts | 175° |
| 2026-04-29 19:16 | 47.39731 | -79.75809 | 23923 ft | 312 kts | 175° |
| 2026-04-29 19:16 | 47.37571 | -79.75373 | 23921 ft | 312 kts | 175° |
| 2026-04-29 19:16 | 47.35419 | -79.74940 | 23921 ft | 312 kts | 175° |
| 2026-04-29 19:17 | 47.33287 | -79.74513 | 23915 ft | 311 kts | 175° |
| 2026-04-29 19:17 | 47.31133 | -79.74076 | 23909 ft | 311 kts | 175° |
| 2026-04-29 19:17 | 47.29006 | -79.73651 | 23918 ft | 311 kts | 175° |
| 2026-04-29 19:17 | 47.26853 | -79.73219 | 23917 ft | 311 kts | 176° |
| 2026-04-29 19:18 | 47.24729 | -79.72791 | 23916 ft | 311 kts | 175° |
| 2026-04-29 19:18 | 47.23294 | -79.72504 | 23911 ft | 311 kts | 175° |
| 2026-04-29 19:18 | 47.20430 | -79.71931 | 23921 ft | 311 kts | 175° |
| 2026-04-29 19:18 | 47.18307 | -79.71505 | 23911 ft | 310 kts | 176° |
| 2026-04-29 19:19 | 47.16163 | -79.71075 | 23907 ft | 309 kts | 175° |
| 2026-04-29 19:19 | 47.14051 | -79.70652 | 23904 ft | 309 kts | 175° |
| 2026-04-29 19:19 | 47.11923 | -79.70229 | 23909 ft | 309 kts | 175° |
| 2026-04-29 19:19 | 47.09785 | -79.69802 | 23911 ft | 309 kts | 176° |
| 2026-04-29 19:20 | 47.07663 | -79.69379 | 23914 ft | 309 kts | 176° |
| 2026-04-29 19:20 | 47.05536 | -79.68955 | 23914 ft | 309 kts | 176° |
| 2026-04-29 19:20 | 47.03421 | -79.68534 | 23918 ft | 309 kts | 176° |
| 2026-04-29 19:20 | 47.01275 | -79.68107 | 23910 ft | 309 kts | 176° |
| 2026-04-29 19:21 | 46.99157 | -79.67687 | 23911 ft | 309 kts | 176° |
| 2026-04-29 19:21 | 46.97030 | -79.67264 | 23911 ft | 309 kts | 176° |
| 2026-04-29 19:21 | 46.94904 | -79.66842 | 23913 ft | 309 kts | 176° |
| 2026-04-29 19:21 | 46.92793 | -79.66423 | 23909 ft | 308 kts | 176° |
| 2026-04-29 19:22 | 46.90663 | -79.66001 | 23905 ft | 308 kts | 176° |
| 2026-04-29 19:22 | 46.88524 | -79.65578 | 23901 ft | 308 kts | 176° |
| 2026-04-29 19:22 | 46.86416 | -79.65161 | 23897 ft | 308 kts | 176° |
| 2026-04-29 19:22 | 46.84280 | -79.64738 | 23892 ft | 308 kts | 176° |
| 2026-04-29 19:23 | 46.82158 | -79.64320 | 23895 ft | 308 kts | 176° |
| 2026-04-29 19:23 | 46.80037 | -79.63901 | 23903 ft | 308 kts | 176° |
| 2026-04-29 19:23 | 46.77904 | -79.63480 | 23898 ft | 308 kts | 176° |
| 2026-04-29 19:23 | 46.75790 | -79.63064 | 23896 ft | 308 kts | 176° |
| 2026-04-29 19:24 | 46.73659 | -79.62644 | 23893 ft | 307 kts | 176° |
| 2026-04-29 19:24 | 46.71548 | -79.62229 | 23894 ft | 307 kts | 176° |
| 2026-04-29 19:24 | 46.69447 | -79.61816 | 23892 ft | 307 kts | 176° |
| 2026-04-29 19:24 | 46.67315 | -79.61398 | 23890 ft | 307 kts | 176° |
| 2026-04-29 19:25 | 46.65216 | -79.60985 | 23890 ft | 307 kts | 176° |
| 2026-04-29 19:25 | 46.63112 | -79.60573 | 23889 ft | 307 kts | 176° |
| 2026-04-29 19:25 | 46.61004 | -79.60159 | 23890 ft | 307 kts | 176° |
| 2026-04-29 19:25 | 46.58879 | -79.59744 | 23887 ft | 306 kts | 176° |
| 2026-04-29 19:26 | 46.56784 | -79.59334 | 23889 ft | 306 kts | 176° |
| 2026-04-29 19:26 | 46.54675 | -79.58921 | 23904 ft | 306 kts | 176° |
| 2026-04-29 19:26 | 46.52549 | -79.58506 | 23904 ft | 306 kts | 176° |
| 2026-04-29 19:26 | 46.50444 | -79.58096 | 23906 ft | 306 kts | 176° |
| 2026-04-29 19:27 | 46.48355 | -79.57688 | 23894 ft | 305 kts | 176° |
| 2026-04-29 19:27 | 46.46250 | -79.57278 | 23899 ft | 305 kts | 176° |
| 2026-04-29 19:27 | 46.44156 | -79.56870 | 23906 ft | 304 kts | 176° |
| 2026-04-29 19:27 | 46.42043 | -79.56458 | 23905 ft | 304 kts | 176° |
| 2026-04-29 19:28 | 46.39964 | -79.56055 | 23901 ft | 304 kts | 176° |
| 2026-04-29 19:28 | 46.37869 | -79.55647 | 23899 ft | 304 kts | 177° |
| 2026-04-29 19:28 | 46.35771 | -79.55240 | 23906 ft | 303 kts | 176° |
| 2026-04-29 19:28 | 46.33676 | -79.54834 | 23904 ft | 303 kts | 176° |
| 2026-04-29 19:29 | 46.31598 | -79.54431 | 23905 ft | 303 kts | 177° |
| 2026-04-29 19:29 | 46.29508 | -79.54027 | 23905 ft | 302 kts | 177° |
| 2026-04-29 19:29 | 46.27441 | -79.53627 | 23904 ft | 302 kts | 176° |
| 2026-04-29 19:29 | 46.25346 | -79.53222 | 23900 ft | 302 kts | 177° |
| 2026-04-29 19:30 | 46.23269 | -79.52821 | 23905 ft | 302 kts | 177° |
| 2026-04-29 19:30 | 46.21178 | -79.52417 | 23903 ft | 302 kts | 177° |
| 2026-04-29 19:30 | 46.19094 | -79.52015 | 23902 ft | 302 kts | 177° |
| 2026-04-29 19:30 | 46.17019 | -79.51614 | 23906 ft | 302 kts | 177° |
| 2026-04-29 19:31 | 46.14916 | -79.51209 | 23905 ft | 302 kts | 177° |
| 2026-04-29 19:31 | 46.12845 | -79.50811 | 23896 ft | 302 kts | 177° |
| 2026-04-29 19:31 | 46.10778 | -79.50414 | 23892 ft | 302 kts | 177° |
| 2026-04-29 19:31 | 46.08686 | -79.50011 | 23889 ft | 301 kts | 177° |
| 2026-04-29 19:32 | 46.06573 | -79.49606 | 23888 ft | 301 kts | 177° |
| 2026-04-29 19:32 | 46.04523 | -79.49212 | 23891 ft | 300 kts | 177° |
| 2026-04-29 19:32 | 46.02436 | -79.48812 | 23888 ft | 300 kts | 177° |
| 2026-04-29 19:32 | 46.00364 | -79.48415 | 23893 ft | 300 kts | 177° |
| 2026-04-29 19:33 | 45.98282 | -79.48016 | 23886 ft | 300 kts | 177° |
| 2026-04-29 19:33 | 45.96224 | -79.47623 | 23882 ft | 299 kts | 177° |
| 2026-04-29 19:33 | 45.94154 | -79.47227 | 23883 ft | 299 kts | 177° |
| 2026-04-29 19:33 | 45.92082 | -79.46831 | 23885 ft | 298 kts | 177° |
| 2026-04-29 19:34 | 45.90019 | -79.46437 | 23884 ft | 298 kts | 177° |
| 2026-04-29 19:34 | 45.87953 | -79.46043 | 23883 ft | 298 kts | 177° |
| 2026-04-29 19:34 | 45.85890 | -79.45650 | 23882 ft | 298 kts | 177° |
| 2026-04-29 19:34 | 45.83828 | -79.45258 | 23881 ft | 298 kts | 177° |
| 2026-04-29 19:35 | 45.81762 | -79.44865 | 23880 ft | 298 kts | 177° |
| 2026-04-29 19:35 | 45.79703 | -79.44473 | 23880 ft | 298 kts | 178° |
| 2026-04-29 19:35 | 45.77641 | -79.44081 | 23880 ft | 298 kts | 177° |
| 2026-04-29 19:35 | 45.75598 | -79.43694 | 23879 ft | 298 kts | 177° |
| 2026-04-29 19:36 | 45.73535 | -79.43302 | 23878 ft | 298 kts | 177° |
| 2026-04-29 19:36 | 45.71481 | -79.42912 | 23878 ft | 298 kts | 178° |
| 2026-04-29 19:36 | 45.69445 | -79.42526 | 23881 ft | 298 kts | 178° |
| 2026-04-29 19:36 | 45.67386 | -79.42136 | 23878 ft | 298 kts | 178° |
| 2026-04-29 19:37 | 45.65334 | -79.41749 | 23875 ft | 298 kts | 178° |
| 2026-04-29 19:37 | 45.63961 | -79.41489 | 23875 ft | 297 kts | 178° |
| 2026-04-29 19:37 | 45.61213 | -79.40970 | 23879 ft | 297 kts | 178° |
| 2026-04-29 19:37 | 45.59158 | -79.40582 | 23877 ft | 297 kts | 178° |
| 2026-04-29 19:38 | 45.57088 | -79.40191 | 23876 ft | 297 kts | 178° |
| 2026-04-29 19:38 | 45.55049 | -79.39807 | 23877 ft | 297 kts | 178° |
| 2026-04-29 19:38 | 45.52991 | -79.39420 | 23874 ft | 297 kts | 178° |
| 2026-04-29 19:38 | 45.50944 | -79.39034 | 23875 ft | 296 kts | 178° |
| 2026-04-29 19:39 | 45.48907 | -79.38650 | 23877 ft | 296 kts | 178° |
| 2026-04-29 19:39 | 45.46847 | -79.38264 | 23875 ft | 296 kts | 178° |
| 2026-04-29 19:39 | 45.44803 | -79.37880 | 23878 ft | 295 kts | 178° |
| 2026-04-29 19:39 | 45.42743 | -79.37493 | 23876 ft | 295 kts | 178° |
| 2026-04-29 19:40 | 45.40716 | -79.37113 | 23875 ft | 295 kts | 178° |
| 2026-04-29 19:40 | 45.38678 | -79.36732 | 23869 ft | 295 kts | 178° |
| 2026-04-29 19:40 | 45.36662 | -79.36354 | 23869 ft | 295 kts | 178° |
| 2026-04-29 19:40 | 45.34635 | -79.35975 | 23872 ft | 295 kts | 178° |
| 2026-04-29 19:41 | 45.32575 | -79.35590 | 23873 ft | 295 kts | 178° |
| 2026-04-29 19:41 | 45.30546 | -79.35211 | 23871 ft | 295 kts | 178° |
| 2026-04-29 19:41 | 45.28514 | -79.34831 | 23871 ft | 294 kts | 179° |
| 2026-04-29 19:41 | 45.26485 | -79.34453 | 23872 ft | 294 kts | 179° |
| 2026-04-29 19:42 | 45.24466 | -79.34076 | 23875 ft | 293 kts | 179° |
| 2026-04-29 19:42 | 45.23092 | -79.33820 | 23874 ft | 293 kts | 179° |
| 2026-04-29 19:42 | 45.20406 | -79.33320 | 23867 ft | 292 kts | 179° |
| 2026-04-29 19:42 | 45.18395 | -79.32945 | 23869 ft | 292 kts | 179° |
| 2026-04-29 19:43 | 45.16381 | -79.32571 | 23870 ft | 292 kts | 179° |
| 2026-04-29 19:43 | 45.14364 | -79.32197 | 23864 ft | 292 kts | 179° |
| 2026-04-29 19:43 | 45.12364 | -79.31825 | 23638 ft | 291 kts | 179° |
| 2026-04-29 19:43 | 45.10367 | -79.31450 | 23379 ft | 288 kts | 179° |
| 2026-04-29 19:44 | 45.08371 | -79.31077 | 23120 ft | 286 kts | 179° |
| 2026-04-29 19:44 | 45.06412 | -79.30711 | 22864 ft | 284 kts | 179° |
| 2026-04-29 19:44 | 45.04453 | -79.30347 | 22621 ft | 282 kts | 180° |
| 2026-04-29 19:44 | 45.02520 | -79.29988 | 22412 ft | 279 kts | 179° |
| 2026-04-29 19:45 | 45.00603 | -79.29632 | 22212 ft | 277 kts | 180° |
| 2026-04-29 19:45 | 44.98689 | -79.29279 | 22014 ft | 276 kts | 180° |
| 2026-04-29 19:45 | 44.96787 | -79.28928 | 21833 ft | 274 kts | 180° |
| 2026-04-29 19:45 | 44.94890 | -79.28577 | 21677 ft | 272 kts | 180° |
| 2026-04-29 19:46 | 44.93025 | -79.28233 | 21580 ft | 269 kts | 180° |
| 2026-04-29 19:46 | 44.91183 | -79.27891 | 21525 ft | 264 kts | 180° |
| 2026-04-29 19:46 | 44.89355 | -79.27554 | 21445 ft | 261 kts | 180° |
| 2026-04-29 19:46 | 44.87536 | -79.27221 | 21273 ft | 262 kts | 180° |
| 2026-04-29 19:47 | 44.85714 | -79.26888 | 21075 ft | 264 kts | 180° |
| 2026-04-29 19:47 | 44.83897 | -79.26558 | 20854 ft | 267 kts | 180° |
| 2026-04-29 19:47 | 44.82034 | -79.26218 | 20613 ft | 270 kts | 180° |
| 2026-04-29 19:47 | 44.80155 | -79.25876 | 20367 ft | 272 kts | 180° |
| 2026-04-29 19:48 | 44.78284 | -79.25534 | 20126 ft | 274 kts | 180° |
| 2026-04-29 19:48 | 44.77010 | -79.25301 | 19960 ft | 276 kts | 180° |
| 2026-04-29 19:48 | 44.74480 | -79.24839 | 19645 ft | 278 kts | 180° |
| 2026-04-29 19:48 | 44.72552 | -79.24487 | 19398 ft | 280 kts | 180° |
| 2026-04-29 19:49 | 44.70624 | -79.24133 | 19145 ft | 281 kts | 180° |
| 2026-04-29 19:49 | 44.68685 | -79.23779 | 18897 ft | 282 kts | 180° |
| 2026-04-29 19:49 | 44.66732 | -79.23421 | 18783 ft | 279 kts | 179° |
| 2026-04-29 19:49 | 44.64853 | -79.23071 | 18641 ft | 278 kts | 180° |
| 2026-04-29 19:50 | 44.62896 | -79.22720 | 18255 ft | 283 kts | 179° |
| 2026-04-29 19:50 | 44.60945 | -79.22364 | 18061 ft | 282 kts | 179° |
| 2026-04-29 19:50 | 44.59018 | -79.22012 | 17839 ft | 281 kts | 179° |
| 2026-04-29 19:50 | 44.57079 | -79.21527 | 17585 ft | 286 kts | 170° |
| 2026-04-29 19:51 | 44.55238 | -79.20431 | 17348 ft | 291 kts | 162° |
| 2026-04-29 19:51 | 44.53415 | -79.19188 | 17093 ft | 291 kts | 161° |
| 2026-04-29 19:51 | 44.51615 | -79.17954 | 16839 ft | 287 kts | 161° |
| 2026-04-29 19:51 | 44.49837 | -79.16740 | 16592 ft | 283 kts | 161° |
| 2026-04-29 19:52 | 44.48065 | -79.15535 | 16326 ft | 280 kts | 161° |
| 2026-04-29 19:52 | 44.46342 | -79.14369 | 16083 ft | 276 kts | 161° |
| 2026-04-29 19:52 | 44.44614 | -79.13203 | 15847 ft | 273 kts | 161° |
| 2026-04-29 19:52 | 44.42920 | -79.12064 | 15613 ft | 271 kts | 161° |
| 2026-04-29 19:53 | 44.41223 | -79.10926 | 15382 ft | 270 kts | 161° |
| 2026-04-29 19:53 | 44.39528 | -79.09793 | 15142 ft | 271 kts | 161° |
| 2026-04-29 19:53 | 44.37833 | -79.08662 | 14905 ft | 272 kts | 161° |
| 2026-04-29 19:53 | 44.36111 | -79.07513 | 14660 ft | 273 kts | 160° |
| 2026-04-29 19:54 | 44.32687 | -79.05231 | 14192 ft | 275 kts | 160° |
| 2026-04-29 19:54 | 44.30947 | -79.04073 | 13947 ft | 276 kts | 160° |
| 2026-04-29 19:54 | 44.29222 | -79.02924 | 13712 ft | 276 kts | 160° |
| 2026-04-29 19:55 | 44.27479 | -79.01765 | 13470 ft | 277 kts | 159° |
| 2026-04-29 19:55 | 44.25759 | -79.00622 | 13225 ft | 278 kts | 159° |
| 2026-04-29 19:55 | 44.24020 | -78.99466 | 12984 ft | 278 kts | 159° |
| 2026-04-29 19:55 | 44.22257 | -78.98296 | 12738 ft | 278 kts | 159° |
| 2026-04-29 19:56 | 44.20518 | -78.97142 | 12497 ft | 278 kts | 159° |
| 2026-04-29 19:56 | 44.18768 | -78.95982 | 12251 ft | 278 kts | 159° |
| 2026-04-29 19:56 | 44.17020 | -78.94823 | 12006 ft | 278 kts | 159° |
| 2026-04-29 19:56 | 44.15208 | -78.94009 | 11669 ft | 271 kts | 180° |
| 2026-04-29 19:57 | 44.13451 | -78.94569 | 11475 ft | 258 kts | 210° |
| 2026-04-29 19:57 | 44.12416 | -78.95399 | 11330 ft | 257 kts | 214° |
| 2026-04-29 19:57 | 44.10415 | -78.97141 | 11026 ft | 256 kts | 215° |
| 2026-04-29 19:57 | 44.08902 | -78.98481 | 10799 ft | 256 kts | 215° |
| 2026-04-29 19:58 | 44.07411 | -78.99809 | 10579 ft | 255 kts | 215° |
| 2026-04-29 19:58 | 44.05935 | -79.01128 | 10353 ft | 255 kts | 215° |
| 2026-04-29 19:58 | 44.04442 | -79.02464 | 10135 ft | 254 kts | 215° |
| 2026-04-29 19:58 | 44.02966 | -79.03785 | 9916 ft | 254 kts | 215° |
| 2026-04-29 19:59 | 44.01466 | -79.05128 | 9691 ft | 254 kts | 215° |
| 2026-04-29 19:59 | 44.00001 | -79.06441 | 9469 ft | 254 kts | 215° |
| 2026-04-29 19:59 | 43.98497 | -79.07762 | 9238 ft | 254 kts | 213° |
| 2026-04-29 19:59 | 43.96952 | -79.08916 | 9017 ft | 254 kts | 210° |
| 2026-04-29 20:00 | 43.95370 | -79.10044 | 8794 ft | 254 kts | 210° |
| 2026-04-29 20:00 | 43.93818 | -79.11146 | 8567 ft | 251 kts | 210° |
| 2026-04-29 20:00 | 43.92271 | -79.12245 | 8333 ft | 249 kts | 210° |
| 2026-04-29 20:00 | 43.90741 | -79.13332 | 8090 ft | 247 kts | 210° |
| 2026-04-29 20:01 | 43.89194 | -79.14432 | 7836 ft | 246 kts | 210° |
| 2026-04-29 20:01 | 43.87688 | -79.15502 | 7587 ft | 244 kts | 210° |
| 2026-04-29 20:01 | 43.86162 | -79.16585 | 7337 ft | 244 kts | 210° |
| 2026-04-29 20:01 | 43.84669 | -79.17648 | 7090 ft | 243 kts | 210° |
| 2026-04-29 20:02 | 43.83164 | -79.18716 | 6836 ft | 243 kts | 210° |
| 2026-04-29 20:02 | 43.81655 | -79.19788 | 6579 ft | 243 kts | 210° |
| 2026-04-29 20:02 | 43.80142 | -79.20862 | 6322 ft | 243 kts | 210° |
| 2026-04-29 20:02 | 43.79158 | -79.21561 | 6151 ft | 243 kts | 210° |
| 2026-04-29 20:03 | 43.77148 | -79.22986 | 5808 ft | 244 kts | 210° |
| 2026-04-29 20:03 | 43.75624 | -79.24066 | 5550 ft | 244 kts | 210° |
| 2026-04-29 20:03 | 43.74105 | -79.25142 | 5297 ft | 244 kts | 210° |
| 2026-04-29 20:03 | 43.72602 | -79.26205 | 5040 ft | 244 kts | 210° |
| 2026-04-29 20:04 | 43.71094 | -79.27271 | 4777 ft | 244 kts | 209° |
| 2026-04-29 20:04 | 43.69587 | -79.28336 | 4514 ft | 244 kts | 209° |
| 2026-04-29 20:04 | 43.68071 | -79.29407 | 4248 ft | 242 kts | 209° |
| 2026-04-29 20:04 | 43.66586 | -79.30454 | 3973 ft | 242 kts | 209° |
| 2026-04-29 20:05 | 43.65100 | -79.31500 | 3683 ft | 237 kts | 208° |
| 2026-04-29 20:05 | 43.63644 | -79.32520 | 3358 ft | 231 kts | 208° |
| 2026-04-29 20:05 | 43.62237 | -79.33508 | 3049 ft | 225 kts | 209° |
| 2026-04-29 20:05 | 43.60859 | -79.34475 | 2854 ft | 216 kts | 209° |
| 2026-04-29 20:06 | 43.59534 | -79.35416 | 2790 ft | 218 kts | 209° |
| 2026-04-29 20:06 | 43.58183 | -79.36375 | 2744 ft | 218 kts | 209° |
| 2026-04-29 20:06 | 43.56838 | -79.37323 | 2713 ft | 215 kts | 209° |
| 2026-04-29 20:06 | 43.55651 | -79.38454 | 2573 ft | 199 kts | 235° |
| 2026-04-29 20:07 | 43.55249 | -79.40099 | 2424 ft | 177 kts | 283° |
| 2026-04-29 20:07 | 43.55656 | -79.41649 | 2375 ft | 171 kts | 300° |
| 2026-04-29 20:07 | 43.56176 | -79.43110 | 2316 ft | 167 kts | 301° |
| 2026-04-29 20:07 | 43.56687 | -79.44492 | 2144 ft | 156 kts | 302° |
| 2026-04-29 20:08 | 43.57199 | -79.45750 | 1977 ft | 147 kts | 311° |
| 2026-04-29 20:08 | 43.57644 | -79.46429 | 1854 ft | 141 kts | 324° |
| 2026-04-29 20:08 | 43.58707 | -79.47263 | 1686 ft | 124 kts | 345° |
| 2026-04-29 20:08 | 43.59553 | -79.47470 | 1584 ft | 125 kts | 1° |
| 2026-04-29 20:09 | 43.60409 | -79.47186 | 1468 ft | 126 kts | 23° |
| 2026-04-29 20:09 | 43.61124 | -79.46493 | 1258 ft | 129 kts | 43° |
| 2026-04-29 20:09 | 43.61578 | -79.45424 | 1026 ft | 132 kts | 70° |
| 2026-04-29 20:09 | 43.61799 | -79.44209 | 898 ft | 133 kts | 72° |
| 2026-04-29 20:10 | 43.62069 | -79.42996 | 869 ft | 132 kts | 66° |
| 2026-04-29 20:10 | 43.62385 | -79.41798 | 670 ft | 134 kts | 68° |
| 2026-04-29 20:10 | 43.62690 | -79.40565 | 324 ft | 136 kts | 68° |
| 2026-04-29 20:10 | 43.62957 | -79.39487 | 239 ft | 84 kts | 71° |
| 2026-04-29 20:11 | 43.63039 | -79.39162 | 239 ft | 24 kts | 73° |
| 2026-04-29 20:11 | 43.63066 | -79.38996 | 239 ft | 2 kts | 88° |
| 2026-04-29 20:11 | 43.63117 | -79.38953 | 240 ft | 12 kts | 338° |
| 2026-04-29 20:11 | 43.63137 | -79.38980 | 239 ft | 0 kts | 288° |
| 2026-04-29 20:12 | 43.63132 | -79.39016 | 239 ft | 8 kts | 251° |
| 2026-04-29 20:12 | 43.63096 | -79.39157 | 239 ft | 17 kts | 252° |
| 2026-04-29 20:12 | 43.63086 | -79.39265 | 239 ft | 9 kts | 284° |
| 2026-04-29 20:12 | 43.63077 | -79.39350 | 239 ft | 9 kts | 249° |
| 2026-04-29 20:13 | 43.63077 | -79.39383 | 239 ft | 2 kts | 324° |
| 2026-04-29 20:13 | 43.63091 | -79.39391 | 239 ft | 3 kts | 340° |
| 2026-04-29 20:13 | 43.63113 | -79.39401 | 239 ft | 0 kts | 340° |
| 2026-04-29 20:13 | 43.63121 | -79.39406 | 239 ft | 0 kts | 338° |
| 2026-04-29 20:14 | 43.63120 | -79.39405 | 239 ft | 1 kts | 337° |
| 2026-04-29 20:14 | 43.63116 | -79.39403 | 239 ft | 0 kts | 342° |